Time;durP1;ratioP1;P1;durP2;ratioP2;P2;SDS_P1;SDS_P2;PMS_P1;PMS_P2;Temp;Humidity;BMP_temperature;BMP_pressure;BME280_temperature;BME280_humidity;BME280_pressure;Samples;Min_cycle;Max_cycle;Signal;HPM_P1;HPM_P2
2022/09/11 00:01:21;;;;;;;2.45;1.40;;;13.80;99.90;;;13.32;100.00;97289.19;4977745;28;20034;-42
2022/09/11 00:03:47;;;;;;;2.10;1.05;;;13.80;99.90;;;13.46;100.00;97307.91;4976749;28;20022;-41
2022/09/11 00:06:21;;;;;;;1.55;0.98;;;13.90;99.90;;;13.45;100.00;97300.88;4979308;28;20042;-41
2022/09/11 00:08:52;;;;;;;1.88;0.90;;;13.90;99.90;;;13.47;100.00;97312.25;4974763;28;20042;-41
2022/09/11 00:11:20;;;;;;;1.70;1.10;;;13.90;99.90;;;13.51;100.00;97303.25;4980392;28;20128;-42
2022/09/11 00:13:50;;;;;;;2.53;1.20;;;13.90;99.90;;;13.52;100.00;97301.44;4981443;28;20285;-42
2022/09/11 00:16:32;;;;;;;1.75;0.90;;;13.90;99.90;;;13.51;100.00;97305.91;4978946;28;20042;-41
2022/09/11 00:19:02;;;;;;;2.58;1.23;;;13.90;99.90;;;13.49;100.00;97310.38;4982371;28;20088;-41
2022/09/11 00:21:28;;;;;;;5.28;1.20;;;13.90;99.90;;;13.49;100.00;97310.38;4971274;28;20061;-41
2022/09/11 00:23:54;;;;;;;2.60;1.10;;;13.90;99.90;;;13.42;100.00;97273.69;4977200;28;20491;-41
2022/09/11 00:26:21;;;;;;;2.25;1.20;;;13.90;99.90;;;13.57;100.00;97299.44;4961994;28;20026;-41
2022/09/11 00:28:49;;;;;;;3.97;0.95;;;14.00;99.90;;;13.38;100.00;97265.03;4978103;28;20026;-41
2022/09/11 00:31:18;;;;;;;2.28;1.08;;;13.90;99.90;;;13.54;100.00;97289.81;4978236;28;20049;-41
2022/09/11 00:33:44;;;;;;;2.47;1.10;;;13.90;99.90;;;13.43;100.00;97270.97;4979178;28;20038;-42
2022/09/11 00:36:20;;;;;;;3.83;1.10;;;13.90;99.90;;;13.53;100.00;97290.78;4978770;28;20494;-41
2022/09/11 00:38:48;;;;;;;1.83;0.95;;;13.90;99.90;;;13.55;100.00;97294.19;4977382;28;20122;-41
2022/09/11 00:41:28;;;;;;;1.35;0.85;;;13.90;99.90;;;13.52;100.00;97298.78;4977800;28;20038;-41
2022/09/11 00:44:15;;;;;;;1.45;1.00;;;13.90;99.90;;;13.48;100.00;97292.78;4979855;28;20113;-41
2022/09/11 00:46:53;;;;;;;1.52;1.08;;;13.90;99.90;;;13.40;100.00;97291.47;4976439;28;20042;-41
2022/09/11 00:49:50;;;;;;;2.15;1.00;;;13.80;99.90;;;13.30;100.00;97299.00;4981034;28;20065;-43
2022/09/11 00:52:32;;;;;;;1.70;1.00;;;13.70;99.90;;;13.24;100.00;97294.81;4959206;28;20045;-41
2022/09/11 00:55:07;;;;;;;1.13;1.02;;;13.60;99.90;;;13.24;100.00;97286.03;4961191;28;20030;-42
2022/09/11 00:57:45;;;;;;;2.97;1.20;;;13.60;99.90;;;13.25;100.00;97293.91;4954125;28;20735;-42
2022/09/11 01:00:12;;;;;;;1.52;1.10;;;13.60;99.90;;;13.27;100.00;97292.03;4962518;28;20035;-42
2022/09/11 01:02:41;;;;;;;1.73;1.15;;;13.70;99.90;;;13.35;100.00;97295.22;4977629;28;20034;-42
2022/09/11 01:05:09;;;;;;;2.35;1.17;;;13.70;99.90;;;13.37;100.00;97295.13;4963462;28;20030;-42
2022/09/11 01:07:36;;;;;;;2.08;1.20;;;13.70;99.90;;;13.42;100.00;97293.09;4975219;28;20030;-41
2022/09/11 01:10:05;;;;;;;2.30;1.00;;;13.80;99.90;;;13.44;100.00;97290.38;4977061;28;20033;-41
2022/09/11 01:12:48;;;;;;;1.25;0.90;;;13.80;99.90;;;13.44;100.00;97291.25;4977247;28;20086;-41
2022/09/11 01:15:29;;;;;;;3.20;1.20;;;13.80;99.90;;;13.44;100.00;97285.94;4962858;28;20035;-43
2022/09/11 01:18:29;;;;;;;2.65;0.90;;;13.80;99.90;;;13.42;100.00;97281.66;4977918;28;20034;-41
2022/09/11 01:21:00;;;;;;;2.10;1.25;;;13.80;99.90;;;13.41;100.00;97294.03;4961723;28;20109;-42
2022/09/11 01:24:08;;;;;;;3.42;1.20;;;13.80;99.90;;;13.44;100.00;97293.91;4979122;28;20037;-41
2022/09/11 01:27:09;;;;;;;1.95;1.20;;;13.80;99.90;;;13.50;100.00;97284.78;4975204;28;20022;-41
2022/09/11 01:29:48;;;;;;;3.25;1.30;;;13.90;99.90;;;13.53;100.00;97284.59;4971801;28;20137;-41
2022/09/11 01:32:22;;;;;;;3.25;1.30;;;13.90;99.90;;;13.55;100.00;97288.91;4962514;28;20026;-41
2022/09/11 01:35:07;;;;;;;2.80;1.20;;;14.00;99.90;;;13.55;100.00;97294.19;4975880;28;20034;-42
2022/09/11 01:37:59;;;;;;;5.80;1.20;;;14.00;99.90;;;13.40;100.00;97272.91;4949243;28;20066;-43
2022/09/11 01:40:36;;;;;;;5.43;1.30;;;13.90;99.90;;;13.49;100.00;97297.13;4958856;28;20048;-42
2022/09/11 01:43:12;;;;;;;5.15;1.65;;;13.90;99.90;;;13.49;100.00;97298.94;4960765;28;20308;-42
2022/09/11 01:45:43;;;;;;;1.90;1.13;;;13.80;99.90;;;13.49;100.00;97298.94;4958653;28;20038;-42
2022/09/11 01:48:14;;;;;;;4.28;1.20;;;13.90;99.90;;;13.41;100.00;97298.50;4956733;28;20039;-43
2022/09/11 01:50:45;;;;;;;4.50;1.20;;;13.80;99.90;;;13.32;100.00;97294.50;4955987;28;20034;-42
2022/09/11 01:53:15;;;;;;;2.30;1.20;;;13.70;99.90;;;13.27;100.00;97293.84;4959152;28;20049;-41
2022/09/11 01:55:58;;;;;;;2.85;1.20;;;13.70;99.90;;;13.23;100.00;97297.56;4976307;28;20061;-42
2022/09/11 01:58:31;;;;;;;2.35;1.33;;;13.60;99.90;;;13.18;100.00;97293.34;4959624;28;20050;-42
2022/09/11 02:01:08;;;;;;;3.58;1.20;;;13.60;99.90;;;13.18;100.00;97287.19;4959588;28;20251;-43
2022/09/11 02:03:53;;;;;;;3.10;1.27;;;13.60;99.90;;;13.14;100.00;97289.13;4957025;28;20037;-42
2022/09/11 02:06:30;;;;;;;5.82;1.60;;;13.50;99.90;;;13.13;100.00;97290.06;4958405;28;20318;-43
2022/09/11 02:09:03;;;;;;;3.42;1.40;;;13.50;99.90;;;13.14;100.00;97293.59;4972516;28;22099;-44
2022/09/11 02:11:33;;;;;;;3.08;1.90;;;13.50;99.90;;;13.11;100.00;97294.56;4953546;28;20049;-43
2022/09/11 02:14:39;;;;;;;3.72;1.38;;;13.50;99.90;;;13.02;100.00;97295.03;4977132;28;20048;-41
2022/09/11 02:17:26;;;;;;;1.95;1.38;;;13.50;99.90;;;13.06;100.00;97299.22;4959775;28;20037;-41
2022/09/11 02:19:55;;;;;;;3.28;1.58;;;13.40;99.90;;;13.02;100.00;97299.47;4962094;28;20057;-41
2022/09/11 02:22:21;;;;;;;4.40;1.55;;;13.40;99.90;;;13.06;100.00;97312.47;4953854;28;20037;-41
2022/09/11 02:24:47;;;;;;;2.58;1.65;;;13.40;99.90;;;13.03;100.00;97301.16;4960362;28;20026;-41
2022/09/11 02:27:22;;;;;;;5.63;1.65;;;13.40;99.90;;;13.08;100.00;97309.75;4963823;28;20069;-42
2022/09/11 02:29:48;;;;;;;4.07;1.63;;;13.50;99.90;;;13.11;100.00;97307.81;4959128;28;20034;-41
2022/09/11 02:32:13;;;;;;;2.70;1.58;;;13.50;99.90;;;13.15;100.00;97301.47;4958885;28;20046;-41
2022/09/11 02:34:41;;;;;;;2.75;1.90;;;13.50;99.90;;;13.23;100.00;97310.81;4973535;28;20450;-43
2022/09/11 02:37:30;;;;;;;4.18;2.22;;;13.60;99.90;;;13.32;100.00;97310.41;4973545;28;20049;-42
2022/09/11 02:40:47;;;;;;;7.47;2.30;;;13.70;99.90;;;13.42;100.00;97322.22;4998151;23;20072;-45
2022/09/11 02:43:23;;;;;;;4.03;1.90;;;13.80;99.90;;;13.47;100.00;97312.25;4973388;28;20076;-44
2022/09/11 02:46:38;;;;;;;3.45;2.10;;;13.90;99.90;;;13.51;100.00;97311.19;4993169;28;20029;-44
2022/09/11 02:49:18;;;;;;;3.70;1.73;;;13.90;99.90;;;13.55;100.00;97323.34;4998408;28;20501;-44
2022/09/11 02:52:04;;;;;;;7.40;2.10;;;13.90;99.90;;;13.58;100.00;97332.06;4991204;28;20282;-45
2022/09/11 02:54:51;;;;;;;4.40;1.90;;;13.90;99.90;;;13.60;100.00;97330.19;4976776;28;20050;-43
2022/09/11 02:57:29;;;;;;;4.10;2.10;;;14.00;99.90;;;13.61;100.00;97327.47;4983542;28;20062;-42
2022/09/11 03:00:03;;;;;;;4.70;1.77;;;14.00;99.90;;;13.63;100.00;97327.41;4988318;28;20045;-44
2022/09/11 03:02:30;;;;;;;5.68;2.40;;;14.00;99.90;;;13.64;100.00;97329.09;5002283;28;20053;-43
2022/09/11 03:04:56;;;;;;;2.97;2.03;;;14.00;99.90;;;13.68;100.00;97320.94;4977622;28;20080;-45
2022/09/11 03:07:24;;;;;;;3.83;1.98;;;14.10;99.90;;;13.69;100.00;97319.13;4996369;28;20033;-43
2022/09/11 03:09:50;;;;;;;4.57;2.30;;;14.10;99.90;;;13.71;100.00;97314.59;4983953;28;20585;-47
2022/09/11 03:12:17;;;;;;;2.95;2.08;;;14.10;99.90;;;13.69;100.00;97317.34;5001688;28;20062;-44
2022/09/11 03:14:42;;;;;;;6.05;2.05;;;14.10;99.90;;;13.70;100.00;97319.06;5002189;28;20044;-44
2022/09/11 03:17:08;;;;;;;3.65;2.33;;;14.10;99.90;;;13.70;100.00;97318.22;5003512;28;20030;-43
2022/09/11 03:19:34;;;;;;;7.93;2.45;;;14.00;99.90;;;13.66;100.00;97325.44;4996519;28;20128;-45
2022/09/11 03:22:01;;;;;;;3.42;2.60;;;14.10;99.90;;;13.67;100.00;97324.50;5000763;28;20389;-43
2022/09/11 03:24:27;;;;;;;7.18;2.53;;;14.10;99.90;;;13.66;100.00;97322.81;5009683;28;20504;-46
2022/09/11 03:26:53;;;;;;;3.08;2.35;;;14.00;99.90;;;13.61;100.00;97316.88;5009703;28;20029;-45
2022/09/11 03:29:19;;;;;;;6.55;2.75;;;14.00;99.90;;;13.65;100.00;97322.88;5003833;28;20064;-43
2022/09/11 03:31:46;;;;;;;4.50;3.20;;;14.00;99.90;;;13.65;100.00;97326.38;5008943;28;20067;-43
2022/09/11 03:34:12;;;;;;;7.82;3.33;;;14.00;99.90;;;13.66;100.00;97319.31;5004852;28;20030;-46
2022/09/11 03:36:39;;;;;;;5.68;2.60;;;14.00;99.90;;;13.51;100.00;97299.72;5009473;28;20029;-44
2022/09/11 03:39:05;;;;;;;5.60;2.80;;;14.00;99.90;;;13.61;100.00;97322.19;5005413;28;20068;-43
2022/09/11 03:41:31;;;;;;;7.20;3.97;;;14.00;99.90;;;13.60;100.00;97316.94;5001835;28;20079;-46
2022/09/11 03:43:57;;;;;;;9.23;3.78;;;14.00;99.90;;;13.67;100.00;97318.34;5000495;28;20145;-44
2022/09/11 03:46:23;;;;;;;6.78;3.60;;;14.00;99.90;;;13.68;100.00;97315.63;5007592;28;20026;-44
2022/09/11 03:48:49;;;;;;;6.53;3.78;;;14.00;99.90;;;13.69;100.00;97330.59;5004329;28;20021;-45
2022/09/11 03:51:16;;;;;;;6.55;3.80;;;14.00;99.90;;;13.68;100.00;97325.38;5005199;28;20405;-43
2022/09/11 03:53:43;;;;;;;5.03;3.58;;;14.10;99.90;;;13.67;100.00;97316.56;5004053;28;20505;-45
2022/09/11 03:56:09;;;;;;;5.07;3.20;;;14.10;99.90;;;13.79;100.00;97333.63;5002401;28;20041;-43
2022/09/11 03:58:35;;;;;;;5.57;3.58;;;14.10;99.90;;;13.73;100.00;97324.22;5009079;28;20049;-44
2022/09/11 04:01:09;;;;;;;10.15;4.05;;;14.10;99.90;;;13.66;100.00;97306.06;4982786;28;20041;-46
2022/09/11 04:03:35;;;;;;;5.85;3.78;;;14.10;99.90;;;13.71;100.00;97323.44;5011287;28;20389;-44
2022/09/11 04:06:02;;;;;;;7.25;3.45;;;14.10;99.90;;;13.71;100.00;97319.91;5005728;28;20049;-44
2022/09/11 04:08:32;;;;;;;6.13;3.95;;;14.10;99.90;;;13.65;100.00;97309.63;5011378;28;20382;-43
2022/09/11 04:11:04;;;;;;;10.38;4.93;;;14.10;99.90;;;13.70;100.00;97328.81;5006320;28;20827;-46
2022/09/11 04:13:33;;;;;;;9.93;4.03;;;14.10;99.90;;;13.65;100.00;97306.97;5006231;28;20537;-43
2022/09/11 04:16:03;;;;;;;10.05;3.92;;;14.10;99.90;;;13.67;100.00;97323.66;5002292;28;20046;-44
2022/09/11 04:18:31;;;;;;;8.80;3.65;;;14.10;99.90;;;13.64;100.00;97313.19;5007447;28;20121;-46
2022/09/11 04:20:57;;;;;;;8.18;4.38;;;14.00;99.90;;;13.61;100.00;97323.97;4997792;28;20034;-43
2022/09/11 04:23:23;;;;;;;10.95;4.35;;;14.00;99.90;;;13.61;100.00;97329.28;5004363;28;20034;-44
2022/09/11 04:25:49;;;;;;;8.88;4.63;;;14.00;99.90;;;13.63;100.00;97330.91;5005320;28;20417;-48
2022/09/11 04:28:14;;;;;;;7.75;3.67;;;14.00;99.90;;;13.63;100.00;97336.19;5001585;28;21182;-44
2022/09/11 04:30:41;;;;;;;5.97;4.05;;;14.00;99.90;;;13.66;100.00;97344.00;5001873;28;20036;-43
2022/09/11 04:33:07;;;;;;;7.55;4.05;;;14.00;99.90;;;13.66;100.00;97329.91;5005328;28;20029;-45
2022/09/11 04:35:39;;;;;;;9.57;4.53;;;14.10;99.90;;;13.65;100.00;97341.44;5001286;28;20396;-42
2022/09/11 04:38:06;;;;;;;6.45;4.72;;;14.10;99.90;;;13.68;100.00;97343.94;5008109;28;20044;-43
2022/09/11 04:40:34;;;;;;;6.88;3.90;;;14.10;99.90;;;13.72;100.00;97350.78;4999294;28;20057;-43
2022/09/11 04:43:01;;;;;;;8.77;5.00;;;14.10;99.90;;;13.71;100.00;97354.34;5006256;28;20040;-42
2022/09/11 04:45:32;;;;;;;6.47;4.00;;;14.10;99.90;;;13.73;100.00;97353.38;5006597;28;20049;-45
2022/09/11 04:47:58;;;;;;;10.10;4.97;;;14.10;99.90;;;13.64;100.00;97342.34;5005741;28;20030;-45
2022/09/11 04:50:24;;;;;;;10.90;3.78;;;14.20;99.90;;;13.77;100.00;97366.47;5001941;28;20037;-44
2022/09/11 04:52:50;;;;;;;6.93;3.50;;;14.10;99.90;;;13.75;100.00;97358.59;5003676;28;20045;-44
2022/09/11 04:55:16;;;;;;;7.13;4.40;;;14.10;99.90;;;13.78;100.00;97374.31;5007863;28;20445;-46
2022/09/11 04:57:41;;;;;;;8.75;4.32;;;14.20;99.90;;;13.78;100.00;97376.97;4994745;28;20083;-47
2022/09/11 05:00:09;;;;;;;7.40;4.90;;;14.20;99.90;;;13.81;100.00;97378.63;5008417;28;20079;-43
2022/09/11 05:02:35;;;;;;;7.10;4.65;;;14.20;99.90;;;13.82;100.00;97382.97;5009222;28;20104;-46
2022/09/11 05:05:01;;;;;;;7.82;4.00;;;14.20;99.90;;;13.84;100.00;97386.44;5004063;28;20438;-44
2022/09/11 05:07:28;;;;;;;7.05;4.60;;;14.20;99.90;;;13.86;100.00;97398.66;5002694;28;20079;-44
2022/09/11 05:09:53;;;;;;;7.50;4.07;;;14.20;99.90;;;13.86;100.00;97395.16;5007143;28;20032;-44
2022/09/11 05:12:22;;;;;;;5.75;3.88;;;14.30;99.90;;;13.88;100.00;97403.88;5005791;28;20436;-43
2022/09/11 05:14:48;;;;;;;6.60;4.07;;;14.30;99.90;;;13.87;100.00;97403.03;4998658;28;20243;-47
2022/09/11 05:17:13;;;;;;;8.52;4.50;;;14.30;99.90;;;13.89;100.00;97405.59;5002033;28;20228;-43
2022/09/11 05:19:39;;;;;;;6.32;3.58;;;14.30;99.90;;;13.90;100.00;97410.81;5008732;28;20663;-44
2022/09/11 05:22:06;;;;;;;4.63;4.10;;;14.30;99.90;;;13.92;100.00;97410.75;5007631;28;20033;-44
2022/09/11 05:24:31;;;;;;;7.85;4.38;;;14.30;99.90;;;13.81;100.00;97392.72;5007299;28;20088;-45
2022/09/11 05:27:00;;;;;;;4.90;4.00;;;14.30;99.90;;;13.94;100.00;97408.88;4989302;28;20029;-43
2022/09/11 05:29:28;;;;;;;9.35;3.72;;;14.30;99.90;;;13.96;100.00;97408.78;5007764;28;20026;-44
2022/09/11 05:32:00;;;;;;;6.47;3.75;;;14.40;99.90;;;13.99;100.00;97417.44;4986874;28;20034;-46
2022/09/11 05:34:29;;;;;;;7.68;3.95;;;14.40;99.90;;;13.99;100.00;97413.94;5000477;28;20510;-46
2022/09/11 05:37:01;;;;;;;6.25;4.45;;;14.40;99.90;;;14.00;100.00;97415.66;4996141;28;20425;-44
2022/09/11 05:39:26;;;;;;;10.80;3.90;;;14.40;99.90;;;14.01;100.00;97418.22;5004174;28;20025;-44
2022/09/11 05:41:54;;;;;;;9.50;3.83;;;14.40;99.90;;;14.03;100.00;97419.03;5005715;28;20053;-47
2022/09/11 05:44:20;;;;;;;6.93;3.67;;;14.40;99.90;;;14.03;100.00;97416.38;5003190;28;20242;-45
2022/09/11 05:46:47;;;;;;;10.25;4.75;;;14.40;99.90;;;14.06;100.00;97425.97;5000324;28;20579;-43
2022/09/11 05:49:12;;;;;;;6.03;4.15;;;14.40;99.90;;;14.09;100.00;97425.81;5002584;28;20029;-43
2022/09/11 05:51:40;;;;;;;5.82;4.57;;;14.40;99.90;;;14.07;100.00;97419.75;5007788;28;20033;-44
2022/09/11 05:54:06;;;;;;;8.30;4.57;;;14.50;99.90;;;14.12;100.00;97434.47;5008891;28;20069;-45
2022/09/11 05:56:32;;;;;;;7.07;4.90;;;14.50;99.90;;;14.14;100.00;97429.09;5003128;28;20452;-44
2022/09/11 05:58:58;;;;;;;10.65;4.85;;;14.50;99.90;;;14.20;100.00;97433.22;5008954;28;20030;-43
2022/09/11 06:01:27;;;;;;;5.30;4.00;;;14.60;99.90;;;14.20;100.00;97427.94;5005642;28;20652;-43
2022/09/11 06:03:53;;;;;;;5.55;4.68;;;14.60;99.90;;;14.27;100.00;97432.81;4997797;28;20041;-45
2022/09/11 06:06:21;;;;;;;5.90;3.95;;;14.60;99.90;;;14.31;100.00;97436.19;5000380;28;20667;-43
2022/09/11 06:08:48;;;;;;;7.88;4.10;;;14.70;99.90;;;14.35;100.00;97445.69;5000820;28;20064;-44
2022/09/11 06:11:16;;;;;;;8.05;4.05;;;14.70;99.90;;;14.40;100.00;97448.97;4996244;28;20038;-47
2022/09/11 06:13:48;;;;;;;6.45;4.80;;;14.80;99.90;;;14.43;100.00;97454.13;5002536;28;20037;-44
2022/09/11 06:16:20;;;;;;;11.75;5.68;;;14.80;99.90;;;14.49;100.00;97455.59;5004243;28;20061;-44
2022/09/11 06:18:48;;;;;;;7.10;5.13;;;14.90;99.90;;;14.52;100.00;97460.75;4996905;28;20108;-45
2022/09/11 06:21:18;;;;;;;9.52;4.60;;;14.90;99.90;;;14.55;100.00;97449.09;5005059;28;20034;-43
2022/09/11 06:23:44;;;;;;;6.05;4.72;;;14.90;99.90;;;14.57;100.00;97465.81;5000328;28;20064;-43
2022/09/11 06:26:14;;;;;;;7.13;4.15;;;15.00;99.90;;;14.67;100.00;97472.41;5002338;28;20033;-46
2022/09/11 06:28:40;;;;;;;8.45;4.70;;;15.00;99.90;;;14.66;100.00;97468.00;5006758;28;20075;-44
2022/09/11 06:31:10;;;;;;;8.93;5.50;;;15.10;99.90;;;14.67;100.00;97467.94;4998276;28;20038;-43
2022/09/11 06:33:39;;;;;;;8.05;5.20;;;15.10;99.90;;;14.70;100.00;97478.41;5004582;28;20034;-44
2022/09/11 06:36:09;;;;;;;10.15;4.95;;;15.10;99.90;;;14.75;100.00;97480.81;4982642;28;20095;-43
2022/09/11 06:38:37;;;;;;;6.75;4.90;;;15.10;99.90;;;14.83;100.00;97485.72;5000264;28;20026;-44
2022/09/11 06:41:05;;;;;;;8.43;5.75;;;15.20;99.90;;;14.85;100.00;97486.50;4993874;28;20092;-43
2022/09/11 06:43:31;;;;;;;8.13;4.55;;;15.20;99.90;;;14.90;100.00;97489.78;5001384;28;20103;-43
2022/09/11 06:46:18;;;;;;;7.32;4.18;;;15.30;99.90;;;14.96;100.00;97494.75;4989184;28;20109;-46
2022/09/11 06:48:46;;;;;;;8.60;5.15;;;15.30;99.90;;;14.99;100.00;97491.94;4986371;28;20500;-43
2022/09/11 06:51:16;;;;;;;7.68;5.65;;;15.40;99.90;;;14.98;100.00;97499.97;5000344;28;20087;-42
2022/09/11 06:53:43;;;;;;;9.23;5.72;;;15.40;99.90;;;15.02;100.00;97497.09;5004531;28;20055;-45
2022/09/11 06:56:11;;;;;;;9.25;4.20;;;15.40;99.90;;;15.05;100.00;97496.91;4987655;28;20034;-44
2022/09/11 06:58:38;;;;;;;11.75;4.82;;;15.50;99.90;;;15.12;100.00;97496.59;5005904;28;20083;-45
2022/09/11 07:01:09;;;;;;;5.00;4.18;;;15.50;99.90;;;15.19;100.00;97500.63;4989595;28;20057;-44
2022/09/11 07:03:36;;;;;;;10.30;5.05;;;15.60;99.90;;;15.20;100.00;97499.69;5003645;28;20060;-45
2022/09/11 07:06:02;;;;;;;5.32;4.53;;;15.60;99.90;;;15.25;100.00;97493.19;5003767;28;20460;-44
2022/09/11 07:08:28;;;;;;;6.35;4.65;;;15.70;99.90;;;15.31;100.00;97499.97;4999542;28;20036;-45
2022/09/11 07:10:54;;;;;;;7.97;4.30;;;15.70;99.90;;;15.32;100.00;97504.31;5000777;28;20025;-43
2022/09/11 07:13:23;;;;;;;5.40;3.85;;;15.70;99.90;;;15.38;100.00;97498.69;5008305;28;20026;-43
2022/09/11 07:15:48;;;;;;;11.30;5.03;;;15.70;99.90;;;15.38;100.00;97493.38;5002714;28;20572;-44
2022/09/11 07:18:14;;;;;;;7.13;3.75;;;15.70;99.90;;;15.40;100.00;97501.28;4997169;28;20121;-44
2022/09/11 07:20:40;;;;;;;6.03;4.00;;;15.80;99.90;;;15.34;100.00;97491.81;5002621;28;20056;-42
2022/09/11 07:23:07;;;;;;;8.73;4.32;;;15.80;99.90;;;15.41;100.00;97500.31;5002627;28;20214;-45
2022/09/11 07:25:37;;;;;;;7.45;4.35;;;15.80;99.90;;;15.43;100.00;97494.00;5002678;28;20402;-44
2022/09/11 07:28:03;;;;;;;7.10;4.15;;;15.80;99.90;;;15.50;100.00;97497.16;5006840;28;20068;-44
2022/09/11 07:30:31;;;;;;;11.70;4.55;;;15.90;99.90;;;15.59;100.00;97495.78;5000605;28;20108;-47
2022/09/11 07:32:57;;;;;;;7.70;4.90;;;16.00;99.90;;;15.70;100.00;97498.69;5001461;28;20041;-45
2022/09/11 07:35:23;;;;;;;10.80;5.10;;;16.00;99.90;;;15.73;100.00;97509.16;4992385;28;20276;-43
2022/09/11 07:37:49;;;;;;;4.47;4.07;;;16.10;99.90;;;15.84;100.00;97505.94;4999783;28;20551;-46
2022/09/11 07:40:15;;;;;;;7.47;5.70;;;16.20;99.90;;;15.82;100.00;97498.03;4998380;28;20038;-44
2022/09/11 07:42:41;;;;;;;6.97;4.65;;;16.30;99.90;;;15.91;100.00;97507.28;4992022;28;20060;-47
2022/09/11 07:45:08;;;;;;;10.45;4.38;;;16.30;99.90;;;15.98;100.00;97511.31;4987418;28;20165;-43
2022/09/11 07:47:34;;;;;;;8.02;5.00;;;16.30;99.90;;;15.93;100.00;97524.03;5000386;28;20045;-44
2022/09/11 07:50:00;;;;;;;4.82;3.67;;;16.30;99.90;;;15.95;100.00;97515.97;4981623;28;20041;-45
2022/09/11 07:52:26;;;;;;;7.85;5.45;;;16.40;99.90;;;16.02;100.00;97530.63;4990048;28;20033;-43
2022/09/11 07:54:51;;;;;;;7.57;4.22;;;16.40;99.90;;;16.14;100.00;97527.28;4991793;28;22299;-44
2022/09/11 07:57:18;;;;;;;5.25;4.20;;;16.50;99.90;;;16.30;100.00;97527.25;4997626;28;20030;-45
2022/09/11 07:59:45;;;;;;;8.40;4.15;;;16.70;99.90;;;16.44;100.00;97533.56;4998180;28;20037;-43
2022/09/11 08:02:11;;;;;;;9.07;4.72;;;16.80;99.90;;;16.44;100.00;97531.78;4997721;28;20464;-43
2022/09/11 08:04:37;;;;;;;7.55;4.75;;;16.90;99.90;;;16.27;100.00;97523.91;4998680;28;20025;-43
2022/09/11 08:07:03;;;;;;;6.80;4.47;;;16.80;99.90;;;16.41;100.00;97539.94;4992577;28;20079;-45
2022/09/11 08:09:29;;;;;;;5.93;3.63;;;16.80;99.90;;;16.47;100.00;97534.22;4990849;28;20870;-44
2022/09/11 08:11:57;;;;;;;6.13;4.20;;;16.80;99.90;;;16.54;100.00;97548.91;4998923;28;20029;-41
2022/09/11 08:14:26;;;;;;;6.97;3.92;;;16.90;99.90;;;16.67;100.00;97543.72;5005076;28;20022;-43
2022/09/11 08:16:53;;;;;;;7.65;5.20;;;17.10;99.90;;;16.71;100.00;97545.25;4999340;28;20054;-44
2022/09/11 08:19:22;;;;;;;8.93;4.88;;;17.20;99.90;;;16.80;100.00;97546.50;4996432;28;20478;-45
2022/09/11 08:21:50;;;;;;;7.50;4.88;;;17.30;99.90;;;16.93;100.00;97544.84;4983728;28;20416;-44
2022/09/11 08:24:16;;;;;;;7.03;4.10;;;17.30;99.90;;;17.07;100.00;97541.34;4999349;28;20044;-43
2022/09/11 08:26:43;;;;;;;5.53;4.10;;;17.50;99.90;;;17.29;100.00;97550.69;5000458;28;20161;-45
2022/09/11 08:29:09;;;;;;;8.05;5.57;;;17.60;99.90;;;17.32;100.00;97554.03;5005225;28;20065;-44
2022/09/11 08:31:35;;;;;;;10.00;4.63;;;17.80;99.90;;;17.42;100.00;97556.97;5000086;28;20125;-45
2022/09/11 08:34:00;;;;;;;5.88;4.25;;;17.90;99.90;;;17.70;100.00;97560.59;4998910;28;20038;-43
2022/09/11 08:36:28;;;;;;;7.05;5.28;;;18.10;99.90;;;17.65;100.00;97544.88;4998590;28;20037;-44
2022/09/11 08:38:54;;;;;;;7.28;4.30;;;18.30;99.90;;;17.71;100.00;97562.28;5009175;22;20046;-47
2022/09/11 08:41:34;;;;;;;5.55;4.13;;;18.20;99.90;;;17.65;100.00;97566.19;4984419;28;20047;-48
2022/09/11 08:44:08;;;;;;;6.30;4.38;;;18.10;99.90;;;17.49;100.00;97560.13;4975345;28;20035;-48
2022/09/11 08:46:47;;;;;;;5.07;3.42;;;17.90;99.90;;;17.47;100.00;97562.03;4992989;28;20037;-46
2022/09/11 08:49:38;;;;;;;4.07;3.20;;;17.80;99.90;;;17.34;100.00;97559.28;4985279;28;20022;-46
2022/09/11 08:52:05;;;;;;;4.55;3.47;;;17.70;99.90;;;17.10;100.00;97548.28;4992633;28;20145;-45
2022/09/11 08:54:37;;;;;;;6.07;4.30;;;17.50;99.90;;;17.00;100.00;97566.66;4995061;28;20041;-45
2022/09/11 08:57:54;;;;;;;6.10;4.63;;;17.40;99.90;;;16.83;100.00;97566.78;4981218;28;20569;-49
2022/09/11 09:00:23;;;;;;;7.43;4.78;;;17.20;99.90;;;16.79;100.00;97563.44;4980483;28;20132;-46
2022/09/11 09:03:05;;;;;;;4.55;3.97;;;17.10;99.90;;;17.02;100.00;97570.09;4994546;28;20093;-47
2022/09/11 09:06:04;;;;;;;10.50;5.47;;;17.30;99.90;;;17.35;100.00;97571.63;4992215;28;20056;-47
2022/09/11 09:08:42;;;;;;;7.40;4.45;;;17.60;99.90;;;17.54;100.00;97566.88;4978251;28;20060;-48
2022/09/11 09:11:27;;;;;;;6.20;4.18;;;17.90;99.90;;;17.72;100.00;97567.53;4992957;28;20121;-47
2022/09/11 09:14:36;;;;;;;5.45;3.92;;;18.10;99.90;;;17.91;100.00;97566.41;4979233;28;20041;-47
2022/09/11 09:17:15;;;;;;;6.80;3.97;;;18.30;99.90;;;18.23;100.00;97571.44;4981437;28;20718;-50
2022/09/11 09:20:11;;;;;;;4.22;3.83;;;18.60;99.90;;;18.73;100.00;97569.06;4993210;28;20477;-46
2022/09/11 09:22:45;;;;;;;5.22;3.65;;;19.10;99.90;;;19.22;93.39;97571.06;4951408;28;20077;-47
2022/09/11 09:25:14;;;;;;;4.97;3.45;;;19.60;99.90;;;19.76;89.00;97567.34;4994175;28;20037;-46
2022/09/11 09:27:52;;;;;;;7.35;2.92;;;20.10;99.90;;;20.21;91.52;97573.00;4980985;28;20550;-46
2022/09/11 09:30:22;;;;;;;3.90;3.03;;;20.50;99.90;;;20.29;75.88;97586.66;4976057;28;20057;-45
2022/09/11 09:33:00;;;;;;;4.22;2.20;;;20.70;99.90;;;20.30;83.64;97582.19;4979978;28;20042;-49
2022/09/11 09:35:38;;;;;;;4.40;2.88;;;20.60;99.90;;;20.19;81.98;97581.16;4978643;28;20034;-47
2022/09/11 09:38:14;;;;;;;3.78;3.15;;;20.50;99.90;;;19.88;80.56;97569.13;4975979;28;20128;-46
2022/09/11 09:41:07;;;;;;;3.45;3.00;;;20.30;99.90;;;19.65;83.24;97576.97;4992756;28;20034;-46
2022/09/11 09:44:09;;;;;;;8.63;2.63;;;20.10;99.90;;;19.51;88.51;97579.75;4979319;28;20022;-48
2022/09/11 09:46:54;;;;;;;2.97;2.60;;;20.00;99.90;;;19.50;92.87;97577.19;4991911;28;21131;-47
2022/09/11 09:49:31;;;;;;;4.55;3.95;;;19.80;99.90;;;19.41;87.00;97576.84;4998643;28;20033;-45
2022/09/11 09:52:04;;;;;;;3.88;2.67;;;19.70;99.90;;;19.36;92.13;97583.50;4979086;28;20053;-45
2022/09/11 09:54:35;;;;;;;4.18;3.10;;;19.70;99.90;;;19.39;93.91;97584.13;4990982;28;20031;-46
2022/09/11 09:57:05;;;;;;;3.53;3.10;;;19.70;99.90;;;19.49;92.70;97581.69;4977685;28;20044;-49
2022/09/11 09:59:38;;;;;;;8.27;3.78;;;19.80;99.90;;;19.61;87.66;97580.81;4978715;28;20036;-48
2022/09/11 10:02:04;;;;;;;4.57;3.10;;;19.90;99.90;;;19.64;87.08;97580.59;4990073;28;20026;-49
2022/09/11 10:04:31;;;;;;;4.60;3.17;;;20.00;99.90;;;19.81;88.73;97582.09;4994433;28;20087;-47
2022/09/11 10:07:09;;;;;;;4.55;3.25;;;20.10;99.90;;;19.93;83.19;97571.47;4994174;28;20033;-45
2022/09/11 10:09:36;;;;;;;5.20;4.10;;;20.30;99.90;;;19.86;81.84;97581.75;4999374;28;20100;-45
2022/09/11 10:12:13;;;;;;;5.65;4.18;;;20.30;99.90;;;19.84;83.12;97578.34;4977781;28;20057;-45
2022/09/11 10:14:50;;;;;;;4.72;3.25;;;20.20;99.90;;;19.98;84.51;97582.72;4978468;28;20560;-45
2022/09/11 10:17:28;;;;;;;3.17;2.50;;;20.30;99.90;;;20.08;84.96;97583.75;4993987;28;20180;-47
2022/09/11 10:19:58;;;;;;;3.92;3.45;;;20.40;99.90;;;20.01;82.43;97582.50;4994362;28;20038;-46
2022/09/11 10:22:31;;;;;;;5.20;3.33;;;20.40;99.90;;;20.01;84.21;97583.34;4976257;28;20022;-46
2022/09/11 10:25:07;;;;;;;3.13;2.80;;;20.30;99.90;;;20.02;85.55;97589.53;4985661;28;20026;-51
2022/09/11 10:27:43;;;;;;;3.53;2.75;;;20.30;99.90;;;19.87;89.13;97588.84;4982117;28;20022;-46
2022/09/11 10:30:30;;;;;;;3.90;3.47;;;20.10;99.90;;;19.66;87.45;97583.16;4977961;28;20026;-52
2022/09/11 10:32:57;;;;;;;3.42;3.08;;;20.00;99.90;;;19.68;88.67;97583.06;4994059;28;20036;-48